sensor_id;sensor_type;location;lat;lon;timestamp;pressure;altitude;pressure_sealevel;temperature;humidity
18533;BME280;9396;51.510;11.934;2023-06-04T00:00:33;100975.03;;;12.61;73.79
18533;BME280;9396;51.510;11.934;2023-06-04T00:02:59;100975.53;;;12.56;74.01
18533;BME280;9396;51.510;11.934;2023-06-04T00:05:26;100969.66;;;12.53;74.63
18533;BME280;9396;51.510;11.934;2023-06-04T00:07:53;100974.28;;;12.51;74.37
18533;BME280;9396;51.510;11.934;2023-06-04T00:10:19;100972.69;;;12.40;74.76
18533;BME280;9396;51.510;11.934;2023-06-04T00:12:48;100965.97;;;12.36;74.66
18533;BME280;9396;51.510;11.934;2023-06-04T00:15:14;100969.50;;;12.37;74.65
18533;BME280;9396;51.510;11.934;2023-06-04T00:17:41;100971.00;;;12.39;74.41
18533;BME280;9396;51.510;11.934;2023-06-04T00:20:09;100972.31;;;12.35;74.11
18533;BME280;9396;51.510;11.934;2023-06-04T00:22:36;100962.22;;;12.29;74.81
18533;BME280;9396;51.510;11.934;2023-06-04T00:25:03;100971.91;;;12.30;74.58
18533;BME280;9396;51.510;11.934;2023-06-04T00:27:30;100966.88;;;12.27;74.17
18533;BME280;9396;51.510;11.934;2023-06-04T00:29:58;100965.88;;;12.28;74.49
18533;BME280;9396;51.510;11.934;2023-06-04T00:32:25;100962.13;;;12.21;74.71
18533;BME280;9396;51.510;11.934;2023-06-04T00:34:52;100939.09;;;12.03;74.91
18533;BME280;9396;51.510;11.934;2023-06-04T00:37:18;100960.38;;;12.12;74.65
18533;BME280;9396;51.510;11.934;2023-06-04T00:39:45;100964.63;;;12.05;74.98
18533;BME280;9396;51.510;11.934;2023-06-04T00:42:12;100963.97;;;12.03;75.19
18533;BME280;9396;51.510;11.934;2023-06-04T00:44:39;100955.84;;;11.95;75.42
18533;BME280;9396;51.510;11.934;2023-06-04T00:47:11;100965.97;;;11.92;75.58
18533;BME280;9396;51.510;11.934;2023-06-04T00:49:38;100967.78;;;11.91;75.67
18533;BME280;9396;51.510;11.934;2023-06-04T00:52:05;100967.94;;;11.90;76.14
18533;BME280;9396;51.510;11.934;2023-06-04T00:54:32;100967.41;;;11.86;75.48
18533;BME280;9396;51.510;11.934;2023-06-04T00:56:59;100965.03;;;11.83;75.68
18533;BME280;9396;51.510;11.934;2023-06-04T00:59:28;100963.22;;;11.83;75.90
18533;BME280;9396;51.510;11.934;2023-06-04T01:01:58;100965.88;;;11.83;75.72
18533;BME280;9396;51.510;11.934;2023-06-04T01:04:32;100966.31;;;11.79;76.36
18533;BME280;9396;51.510;11.934;2023-06-04T01:07:02;100960.75;;;11.72;76.13
18533;BME280;9396;51.510;11.934;2023-06-04T01:09:29;100961.00;;;11.69;76.54
18533;BME280;9396;51.510;11.934;2023-06-04T01:11:56;100967.50;;;11.67;76.37
18533;BME280;9396;51.510;11.934;2023-06-04T01:14:24;100969.47;;;11.65;76.49
18533;BME280;9396;51.510;11.934;2023-06-04T01:16:56;100954.03;;;11.59;76.31
18533;BME280;9396;51.510;11.934;2023-06-04T01:20:00;100965.22;;;11.62;76.28
18533;BME280;9396;51.510;11.934;2023-06-04T01:22:35;100970.31;;;11.56;76.63
18533;BME280;9396;51.510;11.934;2023-06-04T01:25:04;100977.59;;;11.54;76.50
18533;BME280;9396;51.510;11.934;2023-06-04T01:27:31;100972.88;;;11.48;76.44
18533;BME280;9396;51.510;11.934;2023-06-04T01:30:00;100968.13;;;11.42;76.69
18533;BME280;9396;51.510;11.934;2023-06-04T01:32:29;100978.06;;;11.40;76.50
18533;BME280;9396;51.510;11.934;2023-06-04T01:34:56;100966.72;;;11.38;76.56
18533;BME280;9396;51.510;11.934;2023-06-04T01:37:24;100968.28;;;11.31;76.64
18533;BME280;9396;51.510;11.934;2023-06-04T01:39:51;100970.94;;;11.31;76.86
18533;BME280;9396;51.510;11.934;2023-06-04T01:42:18;100966.78;;;11.28;77.30
18533;BME280;9396;51.510;11.934;2023-06-04T01:44:44;100968.88;;;11.25;77.31
18533;BME280;9396;51.510;11.934;2023-06-04T01:47:11;100969.00;;;11.23;77.52
18533;BME280;9396;51.510;11.934;2023-06-04T01:49:38;100964.66;;;11.22;77.03
18533;BME280;9396;51.510;11.934;2023-06-04T01:52:06;100966.78;;;11.19;76.92
18533;BME280;9396;51.510;11.934;2023-06-04T01:54:34;100966.09;;;11.17;76.91
18533;BME280;9396;51.510;11.934;2023-06-04T01:57:01;100970.72;;;11.15;77.06
18533;BME280;9396;51.510;11.934;2023-06-04T01:59:28;100967.94;;;11.07;77.26
18533;BME280;9396;51.510;11.934;2023-06-04T02:01:57;100973.41;;;11.05;77.36
18533;BME280;9396;51.510;11.934;2023-06-04T02:04:23;100961.22;;;11.03;77.49
18533;BME280;9396;51.510;11.934;2023-06-04T02:06:50;100958.25;;;11.06;77.23
18533;BME280;9396;51.510;11.934;2023-06-04T02:09:17;100967.53;;;11.02;76.95
18533;BME280;9396;51.510;11.934;2023-06-04T02:11:45;100961.22;;;11.03;76.91
18533;BME280;9396;51.510;11.934;2023-06-04T02:14:11;100965.97;;;10.99;77.22
18533;BME280;9396;51.510;11.934;2023-06-04T02:16:38;100915.03;;;10.65;77.12
18533;BME280;9396;51.510;11.934;2023-06-04T02:19:05;100970.50;;;10.89;77.15
18533;BME280;9396;51.510;11.934;2023-06-04T02:21:32;100974.41;;;10.85;77.71
18533;BME280;9396;51.510;11.934;2023-06-04T02:23:58;100972.59;;;10.86;77.71
18533;BME280;9396;51.510;11.934;2023-06-04T02:26:25;100972.84;;;10.82;77.77
18533;BME280;9396;51.510;11.934;2023-06-04T02:28:53;100971.88;;;10.84;77.87
18533;BME280;9396;51.510;11.934;2023-06-04T02:31:20;100972.16;;;10.80;77.86
18533;BME280;9396;51.510;11.934;2023-06-04T02:33:47;100980.03;;;10.82;77.76
18533;BME280;9396;51.510;11.934;2023-06-04T02:36:13;100975.94;;;10.78;77.97
18533;BME280;9396;51.510;11.934;2023-06-04T02:38:42;100981.69;;;10.73;78.01
18533;BME280;9396;51.510;11.934;2023-06-04T02:41:09;100978.91;;;10.65;78.25
18533;BME280;9396;51.510;11.934;2023-06-04T02:43:36;100986.88;;;10.65;78.22
18533;BME280;9396;51.510;11.934;2023-06-04T02:46:04;100990.66;;;10.53;78.59
18533;BME280;9396;51.510;11.934;2023-06-04T02:48:31;100991.22;;;10.57;78.82
18533;BME280;9396;51.510;11.934;2023-06-04T02:50:58;100991.38;;;10.55;78.81
18533;BME280;9396;51.510;11.934;2023-06-04T02:53:25;100993.19;;;10.55;78.57
18533;BME280;9396;51.510;11.934;2023-06-04T02:55:51;100996.69;;;10.55;78.70
18533;BME280;9396;51.510;11.934;2023-06-04T02:58:20;100985.34;;;10.53;78.64
18533;BME280;9396;51.510;11.934;2023-06-04T03:00:51;100985.34;;;10.53;78.70
18533;BME280;9396;51.510;11.934;2023-06-04T03:03:19;100989.25;;;10.49;78.58
18533;BME280;9396;51.510;11.934;2023-06-04T03:05:46;100988.53;;;10.47;78.99
18533;BME280;9396;51.510;11.934;2023-06-04T03:08:13;100988.97;;;10.43;78.83
18533;BME280;9396;51.510;11.934;2023-06-04T03:10:40;100994.41;;;10.41;78.86
18533;BME280;9396;51.510;11.934;2023-06-04T03:13:06;100997.06;;;10.41;79.20
18533;BME280;9396;51.510;11.934;2023-06-04T03:15:33;101000.44;;;10.43;78.83
18533;BME280;9396;51.510;11.934;2023-06-04T03:17:59;100998.63;;;10.44;78.72
18533;BME280;9396;51.510;11.934;2023-06-04T03:20:27;100964.88;;;10.35;78.50
18533;BME280;9396;51.510;11.934;2023-06-04T03:22:54;100996.53;;;10.47;78.62
18533;BME280;9396;51.510;11.934;2023-06-04T03:25:21;101002.84;;;10.46;78.49
18533;BME280;9396;51.510;11.934;2023-06-04T03:27:47;100994.16;;;10.44;78.64
18533;BME280;9396;51.510;11.934;2023-06-04T03:30:14;101001.28;;;10.44;78.84
18533;BME280;9396;51.510;11.934;2023-06-04T03:32:41;101004.22;;;10.41;78.91
18533;BME280;9396;51.510;11.934;2023-06-04T03:35:09;101009.41;;;10.42;78.71
18533;BME280;9396;51.510;11.934;2023-06-04T03:37:37;101009.13;;;10.45;78.94
18533;BME280;9396;51.510;11.934;2023-06-04T03:40:05;101011.78;;;10.45;78.82
18533;BME280;9396;51.510;11.934;2023-06-04T03:42:32;101005.22;;;10.49;78.83
18533;BME280;9396;51.510;11.934;2023-06-04T03:44:59;101012.75;;;10.54;78.86
18533;BME280;9396;51.510;11.934;2023-06-04T03:47:25;101011.22;;;10.51;79.10
18533;BME280;9396;51.510;11.934;2023-06-04T03:49:52;101007.16;;;10.47;79.09
18533;BME280;9396;51.510;11.934;2023-06-04T03:52:18;101008.81;;;10.48;78.90
18533;BME280;9396;51.510;11.934;2023-06-04T03:54:46;101004.34;;;10.49;79.17
18533;BME280;9396;51.510;11.934;2023-06-04T03:57:13;101002.41;;;10.51;79.15
18533;BME280;9396;51.510;11.934;2023-06-04T03:59:40;101011.09;;;10.53;79.01
18533;BME280;9396;51.510;11.934;2023-06-04T04:02:06;101010.94;;;10.54;78.97
18533;BME280;9396;51.510;11.934;2023-06-04T04:04:33;101008.00;;;10.57;78.62
18533;BME280;9396;51.510;11.934;2023-06-04T04:06:59;101004.09;;;10.61;78.50
18533;BME280;9396;51.510;11.934;2023-06-04T04:09:26;101006.34;;;10.66;78.54
18533;BME280;9396;51.510;11.934;2023-06-04T04:11:54;101014.91;;;10.69;78.25
18533;BME280;9396;51.510;11.934;2023-06-04T04:14:21;101009.28;;;10.72;78.48
18533;BME280;9396;51.510;11.934;2023-06-04T04:16:47;101009.28;;;10.72;78.68
18533;BME280;9396;51.510;11.934;2023-06-04T04:19:14;101018.09;;;10.63;78.82
18533;BME280;9396;51.510;11.934;2023-06-04T04:21:41;101009.00;;;10.56;78.96
18533;BME280;9396;51.510;11.934;2023-06-04T04:24:08;101018.81;;;10.65;79.10
18533;BME280;9396;51.510;11.934;2023-06-04T04:26:34;101022.59;;;10.72;79.06
18533;BME280;9396;51.510;11.934;2023-06-04T04:29:02;101024.53;;;10.70;79.13
18533;BME280;9396;51.510;11.934;2023-06-04T04:31:29;101018.81;;;10.75;78.96
18533;BME280;9396;51.510;11.934;2023-06-04T04:33:57;101018.09;;;10.82;79.06
18533;BME280;9396;51.510;11.934;2023-06-04T04:36:25;101014.59;;;10.92;78.96
18533;BME280;9396;51.510;11.934;2023-06-04T04:38:52;101016.16;;;10.65;79.50
18533;BME280;9396;51.510;11.934;2023-06-04T04:41:20;101020.63;;;10.74;79.50
18533;BME280;9396;51.510;11.934;2023-06-04T04:43:48;101016.28;;;10.64;79.96
18533;BME280;9396;51.510;11.934;2023-06-04T04:46:16;101019.63;;;10.47;80.25
18533;BME280;9396;51.510;11.934;2023-06-04T04:48:43;101013.59;;;10.54;80.60
18533;BME280;9396;51.510;11.934;2023-06-04T04:51:09;101014.47;;;10.55;80.86
18533;BME280;9396;51.510;11.934;2023-06-04T04:53:36;101022.03;;;10.69;80.63
18533;BME280;9396;51.510;11.934;2023-06-04T04:56:02;101019.38;;;10.98;80.54
18533;BME280;9396;51.510;11.934;2023-06-04T04:58:29;101022.59;;;11.01;80.42
18533;BME280;9396;51.510;11.934;2023-06-04T05:00:55;101022.00;;;11.17;80.15
18533;BME280;9396;51.510;11.934;2023-06-04T05:03:23;101018.63;;;11.34;79.95
18533;BME280;9396;51.510;11.934;2023-06-04T05:05:50;101021.09;;;11.45;80.00
18533;BME280;9396;51.510;11.934;2023-06-04T05:08:17;101036.00;;;11.09;81.05
18533;BME280;9396;51.510;11.934;2023-06-04T05:10:43;101039.94;;;11.24;81.91
18533;BME280;9396;51.510;11.934;2023-06-04T05:13:10;101033.91;;;11.22;81.17
18533;BME280;9396;51.510;11.934;2023-06-04T05:15:37;101033.75;;;11.24;82.03
18533;BME280;9396;51.510;11.934;2023-06-04T05:18:05;101028.78;;;11.57;81.29
18533;BME280;9396;51.510;11.934;2023-06-04T05:20:33;101004.03;;;11.84;81.08
18533;BME280;9396;51.510;11.934;2023-06-04T05:23:03;101032.63;;;12.19;79.78
18533;BME280;9396;51.510;11.934;2023-06-04T05:25:29;101024.59;;;12.01;79.83
18533;BME280;9396;51.510;11.934;2023-06-04T05:27:56;101029.41;;;12.42;79.23
18533;BME280;9396;51.510;11.934;2023-06-04T05:30:23;101025.06;;;12.41;78.17
18533;BME280;9396;51.510;11.934;2023-06-04T05:32:50;101026.81;;;12.50;78.60
18533;BME280;9396;51.510;11.934;2023-06-04T05:35:18;101031.94;;;12.17;78.33
18533;BME280;9396;51.510;11.934;2023-06-04T05:37:46;101019.13;;;12.47;78.86
18533;BME280;9396;51.510;11.934;2023-06-04T05:40:19;101026.44;;;12.80;77.47
18533;BME280;9396;51.510;11.934;2023-06-04T05:42:46;101030.38;;;13.04;77.17
18533;BME280;9396;51.510;11.934;2023-06-04T05:45:13;101026.94;;;13.11;76.15
18533;BME280;9396;51.510;11.934;2023-06-04T05:47:39;101039.81;;;13.16;75.91
18533;BME280;9396;51.510;11.934;2023-06-04T05:50:07;101031.25;;;13.55;75.57
18533;BME280;9396;51.510;11.934;2023-06-04T05:52:33;101031.34;;;14.05;74.64
18533;BME280;9396;51.510;11.934;2023-06-04T05:55:03;101028.25;;;14.83;73.24
18533;BME280;9396;51.510;11.934;2023-06-04T05:57:32;101020.53;;;15.69;69.75
18533;BME280;9396;51.510;11.934;2023-06-04T05:59:59;101017.00;;;16.54;67.59
18533;BME280;9396;51.510;11.934;2023-06-04T06:02:26;101020.28;;;17.32;65.88
18533;BME280;9396;51.510;11.934;2023-06-04T06:04:52;101021.28;;;16.93;65.89
18533;BME280;9396;51.510;11.934;2023-06-04T06:07:19;101026.78;;;17.89;63.59
18533;BME280;9396;51.510;11.934;2023-06-04T06:09:45;101018.41;;;18.13;62.56
18533;BME280;9396;51.510;11.934;2023-06-04T06:12:13;101018.75;;;18.96;61.24
18533;BME280;9396;51.510;11.934;2023-06-04T06:14:40;101017.22;;;19.29;60.14
18533;BME280;9396;51.510;11.934;2023-06-04T06:17:07;101022.78;;;18.64;58.18
18533;BME280;9396;51.510;11.934;2023-06-04T06:19:35;101019.69;;;19.52;59.02
18533;BME280;9396;51.510;11.934;2023-06-04T06:22:01;101026.22;;;19.15;58.34
18533;BME280;9396;51.510;11.934;2023-06-04T06:24:29;101017.22;;;19.84;56.45
18533;BME280;9396;51.510;11.934;2023-06-04T06:26:55;101023.25;;;20.74;55.84
18533;BME280;9396;51.510;11.934;2023-06-04T06:29:23;101030.22;;;21.49;54.93
18533;BME280;9396;51.510;11.934;2023-06-04T06:31:50;101020.81;;;21.58;53.68
18533;BME280;9396;51.510;11.934;2023-06-04T06:34:17;101028.31;;;21.75;54.49
18533;BME280;9396;51.510;11.934;2023-06-04T06:36:43;101026.66;;;21.61;53.62
18533;BME280;9396;51.510;11.934;2023-06-04T06:39:10;101025.16;;;22.93;52.39
18533;BME280;9396;51.510;11.934;2023-06-04T06:41:37;101033.53;;;22.47;51.28
18533;BME280;9396;51.510;11.934;2023-06-04T06:44:05;101031.72;;;22.34;52.92
18533;BME280;9396;51.510;11.934;2023-06-04T06:46:33;101033.91;;;23.26;51.62
18533;BME280;9396;51.510;11.934;2023-06-04T06:49:00;101028.78;;;24.10;51.38
18533;BME280;9396;51.510;11.934;2023-06-04T06:51:26;101032.53;;;25.69;49.45
18533;BME280;9396;51.510;11.934;2023-06-04T06:53:53;101028.66;;;25.42;48.00
18533;BME280;9396;51.510;11.934;2023-06-04T06:56:20;101031.53;;;26.44;47.35
18533;BME280;9396;51.510;11.934;2023-06-04T06:58:47;101025.13;;;26.67;46.61
18533;BME280;9396;51.510;11.934;2023-06-04T07:01:14;101019.13;;;27.37;45.10
18533;BME280;9396;51.510;11.934;2023-06-04T07:03:42;100988.59;;;27.62;44.61
18533;BME280;9396;51.510;11.934;2023-06-04T07:06:08;101034.00;;;25.83;44.44
18533;BME280;9396;51.510;11.934;2023-06-04T07:08:35;101026.72;;;26.34;43.49
18533;BME280;9396;51.510;11.934;2023-06-04T07:11:03;101028.88;;;25.75;44.23
18533;BME280;9396;51.510;11.934;2023-06-04T07:13:30;101017.53;;;27.41;43.66
18533;BME280;9396;51.510;11.934;2023-06-04T07:15:57;101007.75;;;27.62;44.39
18533;BME280;9396;51.510;11.934;2023-06-04T07:18:24;101016.75;;;27.96;43.15
18533;BME280;9396;51.510;11.934;2023-06-04T07:20:52;101014.13;;;27.68;42.75
18533;BME280;9396;51.510;11.934;2023-06-04T07:23:19;101015.22;;;27.33;42.91
18533;BME280;9396;51.510;11.934;2023-06-04T07:25:46;100981.44;;;27.78;42.45
18533;BME280;9396;51.510;11.934;2023-06-04T07:28:12;101013.94;;;28.34;42.99
18533;BME280;9396;51.510;11.934;2023-06-04T07:30:39;101024.47;;;27.82;43.09
18533;BME280;9396;51.510;11.934;2023-06-04T07:33:06;101023.63;;;27.82;43.63
18533;BME280;9396;51.510;11.934;2023-06-04T07:35:33;101029.88;;;26.43;42.46
18533;BME280;9396;51.510;11.934;2023-06-04T07:38:01;101037.81;;;26.44;44.65
18533;BME280;9396;51.510;11.934;2023-06-04T07:40:27;101035.88;;;25.06;44.61
18533;BME280;9396;51.510;11.934;2023-06-04T07:42:54;101031.72;;;25.45;45.26
18533;BME280;9396;51.510;11.934;2023-06-04T07:45:20;101033.13;;;26.28;45.01
18533;BME280;9396;51.510;11.934;2023-06-04T07:47:47;101036.44;;;26.19;43.95
18533;BME280;9396;51.510;11.934;2023-06-04T07:50:14;101036.94;;;26.04;45.34
18533;BME280;9396;51.510;11.934;2023-06-04T07:52:41;101042.38;;;25.81;44.52
18533;BME280;9396;51.510;11.934;2023-06-04T07:55:09;101037.88;;;25.40;44.31
18533;BME280;9396;51.510;11.934;2023-06-04T07:57:36;101037.28;;;25.85;44.76
18533;BME280;9396;51.510;11.934;2023-06-04T08:00:03;101028.16;;;26.02;43.62
18533;BME280;9396;51.510;11.934;2023-06-04T08:02:31;101030.56;;;25.76;45.36
18533;BME280;9396;51.510;11.934;2023-06-04T08:04:57;101026.16;;;24.99;46.22
18533;BME280;9396;51.510;11.934;2023-06-04T08:07:24;101026.53;;;25.90;44.93
18533;BME280;9396;51.510;11.934;2023-06-04T08:09:51;101022.81;;;25.96;45.28
18533;BME280;9396;51.510;11.934;2023-06-04T08:12:19;101026.03;;;25.81;43.50
18533;BME280;9396;51.510;11.934;2023-06-04T08:14:45;101034.53;;;24.68;44.27
18533;BME280;9396;51.510;11.934;2023-06-04T08:17:12;101027.19;;;24.86;45.31
18533;BME280;9396;51.510;11.934;2023-06-04T08:19:38;101034.94;;;24.71;45.96
18533;BME280;9396;51.510;11.934;2023-06-04T08:22:05;101039.69;;;25.70;44.76
18533;BME280;9396;51.510;11.934;2023-06-04T08:24:32;101031.59;;;25.52;44.13
18533;BME280;9396;51.510;11.934;2023-06-04T08:26:58;101027.63;;;25.13;43.95
18533;BME280;9396;51.510;11.934;2023-06-04T08:29:26;101021.03;;;24.43;43.60
18533;BME280;9396;51.510;11.934;2023-06-04T08:31:53;101026.00;;;24.46;43.87
18533;BME280;9396;51.510;11.934;2023-06-04T08:34:20;101026.56;;;24.55;43.46
18533;BME280;9396;51.510;11.934;2023-06-04T08:36:46;101024.91;;;23.99;44.40
18533;BME280;9396;51.510;11.934;2023-06-04T08:39:13;101029.44;;;24.23;46.12
18533;BME280;9396;51.510;11.934;2023-06-04T08:41:43;101030.34;;;24.17;43.96
18533;BME280;9396;51.510;11.934;2023-06-04T08:44:11;101021.94;;;24.37;44.73
18533;BME280;9396;51.510;11.934;2023-06-04T08:46:39;101023.28;;;24.64;45.72
18533;BME280;9396;51.510;11.934;2023-06-04T08:49:07;101030.97;;;24.67;43.67
18533;BME280;9396;51.510;11.934;2023-06-04T08:51:36;101026.56;;;24.55;42.99
18533;BME280;9396;51.510;11.934;2023-06-04T08:54:03;100961.09;;;24.50;42.48
18533;BME280;9396;51.510;11.934;2023-06-04T08:56:30;100992.66;;;24.69;42.92
18533;BME280;9396;51.510;11.934;2023-06-04T08:59:00;101025.31;;;24.69;43.52
18533;BME280;9396;51.510;11.934;2023-06-04T09:01:27;101036.84;;;24.16;44.54
18533;BME280;9396;51.510;11.934;2023-06-04T09:03:55;101039.34;;;24.00;44.45
18533;BME280;9396;51.510;11.934;2023-06-04T09:06:25;101039.88;;;23.84;45.04
18533;BME280;9396;51.510;11.934;2023-06-04T09:08:51;101038.53;;;23.93;45.41
18533;BME280;9396;51.510;11.934;2023-06-04T09:11:20;101037.09;;;23.72;44.51
18533;BME280;9396;51.510;11.934;2023-06-04T09:13:48;101036.38;;;24.01;44.99
18533;BME280;9396;51.510;11.934;2023-06-04T09:16:16;101035.13;;;24.22;44.95
18533;BME280;9396;51.510;11.934;2023-06-04T09:18:43;101037.50;;;24.48;45.33
18533;BME280;9396;51.510;11.934;2023-06-04T09:21:12;101041.22;;;24.35;43.50
18533;BME280;9396;51.510;11.934;2023-06-04T09:23:44;101031.75;;;24.74;44.13
18533;BME280;9396;51.510;11.934;2023-06-04T09:26:11;101030.22;;;24.78;43.04
18533;BME280;9396;51.510;11.934;2023-06-04T09:28:40;101037.81;;;24.58;40.96
18533;BME280;9396;51.510;11.934;2023-06-04T09:31:08;101034.66;;;24.25;41.99
18533;BME280;9396;51.510;11.934;2023-06-04T09:33:42;101030.53;;;24.04;42.17
18533;BME280;9396;51.510;11.934;2023-06-04T09:36:09;101030.16;;;24.19;43.02
18533;BME280;9396;51.510;11.934;2023-06-04T09:38:37;101028.44;;;24.54;42.11
18533;BME280;9396;51.510;11.934;2023-06-04T09:41:04;101042.31;;;23.74;41.68
18533;BME280;9396;51.510;11.934;2023-06-04T09:43:32;101033.63;;;23.65;43.72
18533;BME280;9396;51.510;11.934;2023-06-04T09:46:09;100988.97;;;23.05;42.92
18533;BME280;9396;51.510;11.934;2023-06-04T09:48:37;101022.53;;;23.85;43.58
18533;BME280;9396;51.510;11.934;2023-06-04T09:51:08;101029.28;;;23.58;42.55
18533;BME280;9396;51.510;11.934;2023-06-04T09:53:35;101026.25;;;23.66;42.05
18533;BME280;9396;51.510;11.934;2023-06-04T09:56:04;101025.72;;;23.57;41.59
18533;BME280;9396;51.510;11.934;2023-06-04T09:58:32;101021.91;;;23.65;42.26
18533;BME280;9396;51.510;11.934;2023-06-04T10:01:00;101028.50;;;23.51;41.72
18533;BME280;9396;51.510;11.934;2023-06-04T10:03:30;101026.19;;;22.67;43.87
18533;BME280;9396;51.510;11.934;2023-06-04T10:05:59;101024.78;;;23.20;43.57
18533;BME280;9396;51.510;11.934;2023-06-04T10:08:27;101031.19;;;23.01;43.58
18533;BME280;9396;51.510;11.934;2023-06-04T10:10:55;101024.38;;;23.17;44.08
18533;BME280;9396;51.510;11.934;2023-06-04T10:13:26;101024.88;;;23.39;43.45
18533;BME280;9396;51.510;11.934;2023-06-04T10:15:56;101012.78;;;23.34;43.98
18533;BME280;9396;51.510;11.934;2023-06-04T10:18:24;101024.38;;;23.17;44.63
18533;BME280;9396;51.510;11.934;2023-06-04T10:20:52;101025.50;;;22.78;44.45
18533;BME280;9396;51.510;11.934;2023-06-04T10:23:20;101025.22;;;22.42;44.30
18533;BME280;9396;51.510;11.934;2023-06-04T10:25:49;101023.34;;;22.36;44.95
18533;BME280;9396;51.510;11.934;2023-06-04T10:28:18;101014.88;;;22.70;44.94
18533;BME280;9396;51.510;11.934;2023-06-04T10:30:46;101021.78;;;22.66;44.08
18533;BME280;9396;51.510;11.934;2023-06-04T10:33:16;101018.06;;;22.61;43.14
18533;BME280;9396;51.510;11.934;2023-06-04T10:35:43;101016.97;;;22.68;43.57
18533;BME280;9396;51.510;11.934;2023-06-04T10:38:10;101015.94;;;22.69;44.33
18533;BME280;9396;51.510;11.934;2023-06-04T10:40:39;101019.16;;;22.84;44.66
18533;BME280;9396;51.510;11.934;2023-06-04T10:43:07;101016.28;;;22.79;43.48
18533;BME280;9396;51.510;11.934;2023-06-04T10:45:34;101018.31;;;22.90;43.69
18533;BME280;9396;51.510;11.934;2023-06-04T10:48:03;101026.31;;;22.79;43.66
18533;BME280;9396;51.510;11.934;2023-06-04T10:50:31;101024.78;;;22.52;43.74
18533;BME280;9396;51.510;11.934;2023-06-04T10:52:58;101018.94;;;22.48;43.85
18533;BME280;9396;51.510;11.934;2023-06-04T10:55:28;101016.56;;;22.71;44.96
18533;BME280;9396;51.510;11.934;2023-06-04T10:57:57;101016.28;;;22.79;43.32
18533;BME280;9396;51.510;11.934;2023-06-04T11:00:34;101018.31;;;22.84;43.32
18533;BME280;9396;51.510;11.934;2023-06-04T11:03:04;101008.31;;;22.84;42.89
18533;BME280;9396;51.510;11.934;2023-06-04T11:05:34;101007.63;;;22.64;43.55
18533;BME280;9396;51.510;11.934;2023-06-04T11:08:01;101001.84;;;22.48;43.52
18533;BME280;9396;51.510;11.934;2023-06-04T11:10:32;101008.81;;;22.75;43.62
18533;BME280;9396;51.510;11.934;2023-06-04T11:12:59;101003.06;;;22.52;42.95
18533;BME280;9396;51.510;11.934;2023-06-04T11:15:26;101004.81;;;22.33;43.69
18533;BME280;9396;51.510;11.934;2023-06-04T11:17:55;101010.28;;;22.26;44.16
18533;BME280;9396;51.510;11.934;2023-06-04T11:20:24;101008.09;;;22.42;43.63
18533;BME280;9396;51.510;11.934;2023-06-04T11:22:53;101022.63;;;22.16;43.97
18533;BME280;9396;51.510;11.934;2023-06-04T11:25:21;101012.38;;;22.24;43.84
18533;BME280;9396;51.510;11.934;2023-06-04T11:27:48;101017.75;;;22.31;43.19
18533;BME280;9396;51.510;11.934;2023-06-04T11:30:15;101001.31;;;22.26;43.03
18533;BME280;9396;51.510;11.934;2023-06-04T11:32:42;101011.97;;;22.21;43.18
18533;BME280;9396;51.510;11.934;2023-06-04T11:35:09;100999.41;;;22.33;42.91
18533;BME280;9396;51.510;11.934;2023-06-04T11:37:39;101004.31;;;22.49;44.17
18533;BME280;9396;51.510;11.934;2023-06-04T11:40:15;101004.16;;;22.44;42.97
18533;BME280;9396;51.510;11.934;2023-06-04T11:42:43;101001.47;;;22.31;43.82
18533;BME280;9396;51.510;11.934;2023-06-04T11:45:10;100999.06;;;22.10;43.41
18533;BME280;9396;51.510;11.934;2023-06-04T11:47:37;100994.91;;;22.07;43.76
18533;BME280;9396;51.510;11.934;2023-06-04T11:50:05;101003.03;;;22.07;44.15
18533;BME280;9396;51.510;11.934;2023-06-04T11:52:31;100998.63;;;22.13;43.33
18533;BME280;9396;51.510;11.934;2023-06-04T11:55:01;101012.91;;;21.89;42.70
18533;BME280;9396;51.510;11.934;2023-06-04T11:57:27;101002.66;;;21.97;43.08
18533;BME280;9396;51.510;11.934;2023-06-04T11:59:54;101004.94;;;22.00;43.47
18533;BME280;9396;51.510;11.934;2023-06-04T12:02:21;100989.03;;;22.17;43.03
18533;BME280;9396;51.510;11.934;2023-06-04T12:04:48;100987.09;;;22.30;42.41
18533;BME280;9396;51.510;11.934;2023-06-04T12:07:20;100986.91;;;22.32;42.23
18533;BME280;9396;51.510;11.934;2023-06-04T12:09:49;100982.44;;;22.00;41.50
18533;BME280;9396;51.510;11.934;2023-06-04T12:12:21;100993.63;;;22.16;43.08
18533;BME280;9396;51.510;11.934;2023-06-04T12:14:56;100988.78;;;22.31;42.82
18533;BME280;9396;51.510;11.934;2023-06-04T12:17:23;100978.91;;;22.44;42.97
18533;BME280;9396;51.510;11.934;2023-06-04T12:19:51;100983.06;;;22.46;43.06
18533;BME280;9396;51.510;11.934;2023-06-04T12:22:18;100988.38;;;22.28;42.58
18533;BME280;9396;51.510;11.934;2023-06-04T12:24:47;100973.53;;;22.37;42.39
18533;BME280;9396;51.510;11.934;2023-06-04T12:27:14;100986.72;;;22.20;42.39
18533;BME280;9396;51.510;11.934;2023-06-04T12:29:54;100975.75;;;22.02;42.37
18533;BME280;9396;51.510;11.934;2023-06-04T12:32:21;100979.66;;;22.13;42.45
18533;BME280;9396;51.510;11.934;2023-06-04T12:34:47;100977.88;;;21.94;42.66
18533;BME280;9396;51.510;11.934;2023-06-04T12:37:14;100974.94;;;22.02;43.58
18533;BME280;9396;51.510;11.934;2023-06-04T12:39:41;100969.28;;;22.03;42.49
18533;BME280;9396;51.510;11.934;2023-06-04T12:42:08;100984.56;;;21.72;43.00
18533;BME280;9396;51.510;11.934;2023-06-04T12:44:35;100983.53;;;21.79;43.47
18533;BME280;9396;51.510;11.934;2023-06-04T12:47:04;100968.09;;;21.93;44.08
18533;BME280;9396;51.510;11.934;2023-06-04T12:49:31;100967.41;;;22.04;44.80
18533;BME280;9396;51.510;11.934;2023-06-04T12:51:58;100982.38;;;22.13;43.72